Triath'Elles - Triathlon de Gravelines 2018 - Support Championnats de France Paratriathlon FF TRI

Epreuve sélectionnée:


Triathlon M - Résultats Scratch

Filtre:

Partants Général Top 5



Recherche:

N° dossard
Nom
Club
Triathlon M - Classement arrivée
Clt Athlète Nat. Club Temps Sexe Cat Nat #1 Vélo Vélo Cum #2 CaP Vélo T1 Vélo T2 CaP T1 CaP T2
1 1078 RENARD Emmanuel TRIATHLON CLUB DU MONTREUILLOIS 01:58:29 M (1e) Senior (1e) 00:20:38 (1e) 00:01:03 (4e) 00:57:24 (2e) 01:19:03 (1e) 00:01:04 (72e) 00:38:22 (2e) 00:50:17 (1e) 00:28:47 (2e) 01:38:49 (1e) 00:19:40 (4e) Partagez votre performance
2 1201 VANACKER Xavier LILLE TRIATHLON 02:01:45 M (2e) Veteran (1e) 00:23:36 (12e) 00:01:28 (41e) 00:55:26 (1e) 01:20:29 (2e) 00:01:04 (67e) 00:40:14 (6e) 00:52:44 (5e) 00:27:45 (1e) 01:41:29 (2e) 00:20:17 (6e) Partagez votre performance
3 1288 LOUCHAERT Emmanuel COTE D OPALE TRIATHLON CALAIS SAINT OMER 02:03:24 M (3e) Senior (2e) 00:21:03 (5e) 00:00:52 (1e) 00:59:21 (6e) 01:21:15 (4e) 00:00:40 (1e) 00:41:30 (14e) 00:51:30 (3e) 00:29:46 (6e) 01:42:11 (4e) 00:21:13 (14e) Partagez votre performance
4 1295 COCHIN Leo GRAVELINES TRIATHLON 02:03:48 M (4e) Junior (1e) 00:21:00 (4e) 00:01:01 (2e) 00:59:43 (7e) 01:21:44 (5e) 00:00:40 (2e) 00:41:26 (13e) 00:51:33 (4e) 00:30:11 (10e) 01:41:44 (3e) 00:22:05 (27e) Partagez votre performance
5 1320 DEPYPER Miel 02:04:33 M (5e) Senior (3e) 00:23:33 (11e) 00:01:23 (35e) 00:57:39 (3e) 01:22:33 (6e) 00:01:00 (50e) 00:41:01 (9e) 00:53:30 (6e) 00:29:04 (3e) 01:43:29 (5e) 00:21:04 (12e) Partagez votre performance
6 1071 CORTIER Clement TRIATHLON LITTORAL 59 02:07:47 M (6e) Senior (4e) 00:21:00 (3e) 00:01:09 (7e) 00:58:46 (5e) 01:20:54 (3e) 00:00:52 (33e) 00:46:02 (59e) 00:51:27 (2e) 00:29:28 (5e) 01:43:53 (6e) 00:23:55 (77e) Partagez votre performance
7 1186 LECARDONNEL Axel 02:07:52 M (7e) Senior (5e) 00:26:46 (47e) 00:01:19 (22e) 01:00:39 (11e) 01:28:42 (21e) 00:00:49 (19e) 00:38:22 (1e) 00:58:23 (24e) 00:30:19 (11e) 01:48:40 (11e) 00:19:12 (1e) Partagez votre performance
8 1296 COCQUET Barnabe GRAVELINES TRIATHLON 02:08:17 M (8e) Junior (2e) 00:22:37 (6e) 00:01:05 (6e) 01:03:12 (39e) 01:26:53 (9e) 00:00:47 (8e) 00:40:38 (8e) 00:55:27 (10e) 00:31:26 (35e) 01:47:08 (8e) 00:21:09 (13e) Partagez votre performance
9 1341 DEWANCKELE Matthieu BEAUVAIS TRIATHLON 02:09:08 M (9e) Veteran (2e) 00:23:39 (14e) 00:01:19 (24e) 01:02:06 (24e) 01:27:04 (10e) 00:00:51 (28e) 00:41:15 (10e) 00:56:12 (11e) 00:30:52 (20e) 01:47:08 (7e) 00:22:01 (23e) Partagez votre performance
10 1297 COCQUET Paul GRAVELINES TRIATHLON 02:09:44 M (10e) Junior (3e) 00:22:44 (7e) 00:01:04 (5e) 01:03:01 (37e) 01:26:48 (8e) 00:00:48 (14e) 00:42:09 (18e) 00:55:25 (9e) 00:31:24 (34e) 01:47:40 (9e) 00:22:04 (25e) Partagez votre performance
11 1318 DRUARD Valentin VILLENEUVE D ASCQ TRIATHLON 02:11:07 M (11e) Senior (6e) 00:24:20 (17e) 00:01:16 (14e) 00:58:38 (4e) 01:24:13 (7e) 00:00:48 (15e) 00:46:07 (61e) 00:54:50 (7e) 00:29:24 (4e) 01:47:41 (10e) 00:23:27 (60e) Partagez votre performance
12 1339 TEMMERMAN Herve LYS CALAIS TRIATHLON 02:11:13 M (12e) Veteran (3e) 00:24:23 (18e) 00:01:20 (26e) 01:01:33 (14e) 01:27:15 (12e) 00:00:58 (45e) 00:43:01 (20e) 00:56:39 (15e) 00:30:36 (17e) 01:49:42 (12e) 00:21:31 (16e) Partagez votre performance
13 1255 DELROISSE Rudy HENIN ENDURANCE TEAM 02:12:16 M (13e) Senior (7e) 00:24:28 (20e) 00:01:27 (40e) 01:03:11 (38e) 01:29:04 (23e) 00:01:25 (179e) 00:41:48 (16e) 00:57:48 (22e) 00:31:17 (29e) 01:51:19 (16e) 00:20:58 (10e) Partagez votre performance
14 1223 DEBOFFLE Germain TRIATHLON LITTORAL 59 02:12:26 M (14e) Senior (8e) 00:24:35 (25e) 00:01:37 (67e) 01:01:48 (19e) 01:27:59 (17e) 00:01:02 (59e) 00:43:27 (25e) 00:56:53 (19e) 00:31:06 (25e) 01:50:44 (14e) 00:21:43 (18e) Partagez votre performance
15 1119 RIVENET Baptiste BLANC NEZ TRIATHLON 62 02:12:34 M (15e) Senior (9e) 00:24:43 (26e) 00:01:30 (45e) 01:00:55 (12e) 01:27:07 (11e) 00:00:43 (3e) 00:44:46 (39e) 00:56:35 (13e) 00:30:32 (14e) 01:49:44 (13e) 00:22:51 (42e) Partagez votre performance
16 1057 CURE Julien 02:13:44 M (16e) Senior (10e) 00:24:33 (24e) 00:01:17 (15e) 01:02:34 (32e) 01:28:23 (20e) 00:00:49 (23e) 00:44:33 (34e) 00:56:55 (20e) 00:31:28 (36e) 01:51:25 (17e) 00:22:20 (33e) Partagez votre performance
17 1134 PILLEREL Christophe 02:13:55 M (17e) Senior (11e) 00:27:39 (63e) 00:01:37 (64e) 01:02:31 (31e) 01:31:46 (36e) 00:00:47 (11e) 00:41:23 (12e) 01:00:09 (34e) 00:31:38 (42e) 01:52:32 (22e) 00:21:23 (15e) Partagez votre performance
18 1213 BERTIN Thomas LYS CALAIS TRIATHLON 02:14:32 M (18e) Senior (12e) 00:24:29 (21e) 00:01:13 (9e) 01:02:18 (26e) 01:27:58 (16e) 00:00:50 (26e) 00:45:45 (53e) 00:56:40 (16e) 00:31:19 (32e) 01:50:49 (15e) 00:23:44 (70e) Partagez votre performance
19 1243 ANCELIN Dominique USA Triathlon 02:14:49 M (19e) Veteran (4e) 00:26:54 (52e) 00:01:37 (66e) 01:00:21 (10e) 01:28:52 (22e) 00:01:24 (176e) 00:44:34 (35e) 00:58:55 (25e) 00:29:58 (9e) 01:52:01 (18e) 00:22:49 (41e) Partagez votre performance
20 1336 VASSEUR Yohann LYS CALAIS TRIATHLON 02:15:00 M (20e) Senior (13e) 00:29:24 (107e) 00:01:19 (23e) 01:01:57 (22e) 01:32:39 (40e) 00:00:49 (22e) 00:41:33 (15e) 01:01:28 (46e) 00:31:11 (28e) 01:54:07 (28e) 00:20:53 (9e) Partagez votre performance
21 1260 GYTHIEL Franck TRIATHLON LITTORAL 59 02:15:14 M (21e) Veteran (5e) 00:25:59 (37e) 00:01:54 (104e) 01:01:37 (15e) 01:29:29 (26e) 00:01:05 (74e) 00:44:42 (38e) 00:58:58 (26e) 00:30:31 (13e) 01:52:15 (20e) 00:23:00 (50e) Partagez votre performance
22 1351 STIEREMANS Pierre 02:15:18 M (22e) Senior (14e) 00:27:55 (68e) 00:02:46 (220e) 01:03:51 (52e) 01:34:30 (54e) 00:01:19 (156e) 00:39:30 (4e) 01:02:33 (64e) 00:31:58 (51e) 01:55:42 (35e) 00:19:37 (2e) Partagez votre performance
23 1144 LE FRAILLEC Yann 02:16:01 M (23e) Senior (15e) 00:25:49 (30e) 00:01:45 (84e) 01:03:41 (48e) 01:31:13 (30e) 00:01:11 (105e) 00:43:38 (27e) 00:59:07 (27e) 00:32:07 (55e) 01:53:52 (25e) 00:22:09 (28e) Partagez votre performance
24 1082 BOUDIER Stephane COTE D OPALE TRIATHLON CALAIS SAINT OMER 02:16:19 M (24e) Veteran (6e) 00:24:33 (23e) 00:01:25 (37e) 01:01:57 (21e) 01:27:54 (14e) 00:01:13 (117e) 00:47:13 (84e) 00:57:22 (21e) 00:30:32 (15e) 01:52:26 (21e) 00:23:54 (75e) Partagez votre performance
25 1013 DELBECQUE Vincent LYS CALAIS TRIATHLON 02:16:48 M (25e) Senior (16e) 00:30:55 (152e) 00:01:21 (31e) 00:59:51 (9e) 01:32:06 (38e) 00:00:45 (5e) 00:43:58 (30e) 01:02:10 (57e) 00:29:57 (8e) 01:54:44 (31e) 00:22:04 (26e) Partagez votre performance
26 1337 DUBUISSON Julien GRAVELINES TRIATHLON 02:16:59 M (26e) Senior (17e) 00:24:26 (19e) 00:01:34 (56e) 01:02:20 (28e) 01:28:18 (19e) 00:00:48 (13e) 00:47:54 (94e) 00:56:45 (18e) 00:31:34 (39e) 01:52:03 (19e) 00:24:56 (116e) Partagez votre performance
27 1348 LAURENT Germain 02:16:59 M (27e) Senior (18e) 00:31:20 (159e) 00:01:35 (57e) 01:03:41 (49e) 01:36:34 (75e) 00:01:13 (116e) 00:39:13 (3e) 01:04:51 (102e) 00:31:44 (43e) 01:57:21 (44e) 00:19:39 (3e) Partagez votre performance
28 1199 VROLAND Maxime TRIATHLON LITTORAL 59 02:17:04 M (28e) Senior (19e) 00:26:35 (44e) 00:01:15 (12e) 01:04:32 (59e) 01:32:21 (39e) 00:00:49 (21e) 00:43:55 (29e) 00:59:57 (31e) 00:32:24 (65e) 01:54:07 (27e) 00:22:57 (47e) Partagez votre performance
29 1143 QUIQUET Christophe TRIATHLON CLUB BOULONNAIS 02:17:08 M (29e) Veteran (7e) 00:29:36 (115e) 00:01:20 (27e) 00:59:45 (8e) 01:30:41 (27e) 00:00:54 (38e) 00:45:34 (50e) 01:00:45 (41e) 00:29:56 (7e) 01:54:17 (29e) 00:22:52 (43e) Partagez votre performance
30 1332 GAUTHIER Arnaud PASTEL TRIATHLON SAINT QUENTIN 02:17:44 M (30e) Senior (20e) 00:23:14 (9e) 00:01:21 (30e) 01:03:35 (46e) 01:28:09 (18e) 00:01:10 (101e) 00:48:26 (101e) 00:56:18 (12e) 00:31:52 (48e) 01:53:06 (23e) 00:24:38 (103e) Partagez votre performance
31 1087 VERHAEGHE Gael ATHLETIC CLUB MARCQUOIS 02:17:57 M (31e) Junior (4e) 00:25:42 (29e) 00:01:37 (62e) 01:06:31 (99e) 01:33:50 (48e) 00:00:47 (9e) 00:43:21 (23e) 01:00:30 (37e) 00:33:20 (96e) 01:56:24 (40e) 00:21:33 (17e) Partagez votre performance
32 1138 CAMBAZAR Arnaud LILLE TRIATHLON 02:18:14 M (32e) Senior (21e) 00:21:00 (2e) 00:01:51 (99e) 01:04:38 (63e) 01:27:27 (13e) 00:01:22 (168e) 00:49:26 (126e) 00:55:06 (8e) 00:32:22 (63e) 01:53:56 (26e) 00:24:18 (93e) Partagez votre performance
33 1105 WACKERS Emmanuel 02:18:23 M (33e) Veteran (8e) 00:27:46 (66e) 00:01:35 (59e) 01:05:20 (75e) 01:34:41 (56e) 00:01:00 (54e) 00:42:44 (19e) 01:02:04 (51e) 00:32:37 (74e) 01:56:20 (39e) 00:22:04 (24e) Partagez votre performance
34 1148 MOERMAN Remy GRAVELINES TRIATHLON 02:18:26 M (34e) Senior (22e) 00:23:29 (10e) 00:01:33 (52e) 01:02:57 (35e) 01:27:58 (15e) 00:01:09 (95e) 00:49:20 (123e) 00:56:40 (17e) 00:31:18 (30e) 01:53:30 (24e) 00:24:56 (114e) Partagez votre performance
35 1151 BRABANT Guillaume GRAVELINES TRIATHLON 02:18:28 M (35e) Senior (23e) 00:28:18 (77e) 00:01:17 (17e) 01:01:30 (13e) 01:31:05 (28e) 00:01:00 (51e) 00:46:25 (64e) 01:00:37 (38e) 00:30:28 (12e) 01:55:19 (33e) 00:23:10 (56e) Partagez votre performance
36 1197 LEGAGE Benoît VILLENEUVE D ASCQ TRIATHLON 02:18:37 M (36e) Senior (24e) 00:30:33 (142e) 00:01:29 (44e) 01:02:00 (23e) 01:34:01 (51e) 00:01:01 (57e) 00:43:37 (26e) 01:02:55 (71e) 00:31:06 (24e) 01:56:28 (41e) 00:22:10 (29e) Partagez votre performance
37 1229 PLUY Patrick TRIATHLON LITTORAL 59 02:19:07 M (37e) Veteran (9e) 00:28:16 (76e) 00:01:18 (21e) 01:01:43 (16e) 01:31:16 (31e) 00:01:17 (142e) 00:46:35 (67e) 01:00:43 (40e) 00:30:34 (16e) 01:55:30 (34e) 00:23:38 (67e) Partagez votre performance
38 1287 STALIN Nicolas USA Triathlon 02:19:20 M (38e) Senior (25e) 00:27:06 (54e) 00:01:36 (60e) 01:02:29 (30e) 01:31:09 (29e) 00:00:50 (27e) 00:47:22 (85e) 00:59:59 (32e) 00:31:10 (27e) 01:54:43 (30e) 00:24:38 (101e) Partagez votre performance
39 1142 PÉRIGNON Paul Deutsche Triathlon Union 02:19:42 M (39e) Senior (26e) 00:26:11 (40e) 00:03:29 (277e) 01:03:35 (45e) 01:33:14 (43e) 00:02:14 (293e) 00:44:15 (31e)